createdAt,value
2019-03-12T00:01:27.154Z,5.20
2019-03-12T00:02:59.735Z,5.20
2019-03-12T00:04:32.112Z,5.20
2019-03-12T00:06:04.377Z,5.20
2019-03-12T00:07:36.741Z,5.20
2019-03-12T00:09:09.095Z,5.20
2019-03-12T00:10:41.342Z,5.10
2019-03-12T00:12:13.584Z,5.20
2019-03-12T00:13:45.873Z,5.10
2019-03-12T00:15:18.113Z,5.10
2019-03-12T00:16:50.391Z,5.10
2019-03-12T00:18:22.512Z,5.10
2019-03-12T00:19:54.787Z,5.10
2019-03-12T00:21:27.017Z,5.10
2019-03-12T00:22:59.296Z,5.10
2019-03-12T00:24:31.560Z,5.00
2019-03-12T00:26:03.800Z,5.10
2019-03-12T00:27:35.920Z,5.10
2019-03-12T00:29:08.048Z,5.00
2019-03-12T00:30:40.240Z,5.00
2019-03-12T00:32:12.469Z,5.00
2019-03-12T00:33:44.762Z,5.00
2019-03-12T00:35:17.006Z,5.00
2019-03-12T00:36:49.222Z,5.00
2019-03-12T00:38:21.529Z,5.00
2019-03-12T00:39:53.808Z,5.00
2019-03-12T00:41:25.998Z,5.10
2019-03-12T00:42:58.301Z,5.10
2019-03-12T00:44:30.541Z,5.10
2019-03-12T00:46:02.807Z,5.10
2019-03-12T00:47:35.097Z,5.10
2019-03-12T00:49:07.417Z,5.10
2019-03-12T00:50:39.672Z,5.10
2019-03-12T00:52:11.912Z,5.10
2019-03-12T00:53:44.142Z,5.10
2019-03-12T00:55:16.256Z,5.00
2019-03-12T00:56:48.547Z,5.00
2019-03-12T00:58:20.775Z,5.00
2019-03-12T00:59:56.227Z,5.00
2019-03-12T01:01:27.276Z,5.00
2019-03-12T01:02:59.566Z,5.00
2019-03-12T01:04:31.828Z,5.00
2019-03-12T01:06:04.196Z,5.00
2019-03-12T01:07:36.463Z,5.00
2019-03-12T01:09:08.771Z,5.00
2019-03-12T01:10:41.013Z,5.00
2019-03-12T01:12:13.245Z,4.90
2019-03-12T01:13:45.373Z,4.90
2019-03-12T01:15:17.692Z,4.90
2019-03-12T01:16:49.841Z,4.90
2019-03-12T01:18:21.992Z,4.90
2019-03-12T01:19:54.146Z,4.80
2019-03-12T01:21:26.468Z,4.80
2019-03-12T01:22:58.799Z,4.80
2019-03-12T01:24:31.066Z,4.80
2019-03-12T01:26:03.267Z,4.80
2019-03-12T01:27:35.591Z,4.80
2019-03-12T01:29:07.836Z,4.80
2019-03-12T01:30:40.139Z,4.80
2019-03-12T01:32:12.443Z,4.80
2019-03-12T01:33:44.666Z,4.80
2019-03-12T01:35:16.951Z,4.80
2019-03-12T01:36:49.229Z,4.70
2019-03-12T01:38:21.515Z,4.70
2019-03-12T01:39:53.790Z,4.70
2019-03-12T01:41:25.932Z,4.70
2019-03-12T01:42:58.087Z,4.70
2019-03-12T01:44:30.380Z,4.60
2019-03-12T01:46:02.507Z,4.60
2019-03-12T01:47:34.791Z,4.60
2019-03-12T01:49:07.089Z,4.60
2019-03-12T01:50:39.228Z,4.50
2019-03-12T01:52:11.514Z,4.50
2019-03-12T01:53:43.786Z,4.50
2019-03-12T01:55:16.059Z,4.50
2019-03-12T01:56:48.135Z,4.50
2019-03-12T01:58:20.299Z,4.50
2019-03-12T01:59:52.533Z,4.40
2019-03-12T02:01:24.619Z,4.40
2019-03-12T02:02:56.901Z,4.40
2019-03-12T02:04:29.027Z,4.40
2019-03-12T02:06:01.252Z,4.30
2019-03-12T02:07:33.611Z,4.30
2019-03-12T02:09:07.404Z,4.30
2019-03-12T02:10:39.684Z,4.30
2019-03-12T02:12:11.986Z,4.20
2019-03-12T02:13:44.249Z,4.20
2019-03-12T02:15:16.548Z,4.20
2019-03-12T02:16:48.854Z,4.20
2019-03-12T02:18:21.146Z,4.20
2019-03-12T02:19:53.533Z,4.20
2019-03-12T02:21:25.839Z,4.10
2019-03-12T02:22:58.072Z,4.20
2019-03-12T02:24:30.293Z,4.20
2019-03-12T02:26:02.578Z,4.10
2019-03-12T02:27:34.842Z,4.10
2019-03-12T02:29:07.166Z,4.10
2019-03-12T02:30:39.438Z,4.10
2019-03-12T02:32:11.599Z,4.10
2019-03-12T02:33:43.951Z,4.10
2019-03-12T02:35:16.341Z,4.10
2019-03-12T02:36:48.672Z,4.10
2019-03-12T02:38:21.022Z,4.10
2019-03-12T02:39:53.291Z,4.10
2019-03-12T02:41:25.425Z,4.10
2019-03-12T02:42:57.713Z,4.10
2019-03-12T02:44:29.991Z,4.00
2019-03-12T02:46:02.257Z,4.00
2019-03-12T02:47:34.517Z,4.00
2019-03-12T02:49:09.410Z,3.90
2019-03-12T02:50:40.920Z,3.90
2019-03-12T02:52:13.243Z,3.90
2019-03-12T02:53:45.507Z,3.90
2019-03-12T02:55:17.790Z,3.80
2019-03-12T02:56:50.017Z,3.90
2019-03-12T02:58:22.266Z,3.90
2019-03-12T02:59:54.564Z,3.90
2019-03-12T03:01:26.901Z,3.80
2019-03-12T03:02:59.038Z,3.80
2019-03-12T03:04:31.281Z,3.80
2019-03-12T03:06:23.002Z,3.70
2019-03-12T03:07:57.510Z,3.70
2019-03-12T03:09:29.840Z,3.70
2019-03-12T03:11:02.087Z,3.70
2019-03-12T03:12:34.333Z,3.70
2019-03-12T03:14:29.852Z,3.60
2019-03-12T03:16:02.191Z,3.60
2019-03-12T03:17:34.564Z,3.60
2019-03-12T03:19:06.845Z,3.60
2019-03-12T03:20:39.109Z,3.50
2019-03-12T03:22:11.408Z,3.50
2019-03-12T03:23:43.676Z,3.50
2019-03-12T03:25:16.313Z,3.50
2019-03-12T03:26:48.525Z,3.50
2019-03-12T03:28:20.691Z,3.40
2019-03-12T03:29:52.918Z,3.40
2019-03-12T03:31:25.368Z,3.30
2019-03-12T03:32:57.748Z,3.30
2019-03-12T03:34:29.990Z,3.30
2019-03-12T03:36:02.374Z,3.40
2019-03-12T03:37:34.691Z,3.40
2019-03-12T03:39:07.232Z,3.40
2019-03-12T03:40:39.464Z,3.40
2019-03-12T03:42:11.614Z,3.40
2019-03-12T03:43:43.972Z,3.40
2019-03-12T03:45:16.231Z,3.40
2019-03-12T03:46:48.527Z,3.40
2019-03-12T03:48:20.810Z,3.40
2019-03-12T03:49:53.195Z,3.50
2019-03-12T03:51:25.430Z,3.50
2019-03-12T03:52:57.709Z,3.50
2019-03-12T03:54:30.062Z,3.50
2019-03-12T03:56:02.362Z,3.60
2019-03-12T03:57:34.650Z,3.50
2019-03-12T03:59:06.952Z,3.60
2019-03-12T04:00:39.107Z,3.60
2019-03-12T04:02:11.292Z,3.60
2019-03-12T04:03:43.632Z,3.60
2019-03-12T04:05:16.105Z,3.60
2019-03-12T04:06:48.324Z,3.60
2019-03-12T04:08:20.585Z,3.60
2019-03-12T04:09:52.841Z,3.60
2019-03-12T04:11:25.028Z,3.60
2019-03-12T04:12:57.284Z,3.50
2019-03-12T04:14:29.594Z,3.50
2019-03-12T04:16:01.793Z,3.50
2019-03-12T04:17:33.915Z,3.50
2019-03-12T04:19:06.162Z,3.50
2019-03-12T04:20:38.443Z,3.50
2019-03-12T04:22:10.680Z,3.50
2019-03-12T04:23:42.970Z,3.50
2019-03-12T04:25:15.394Z,3.40
2019-03-12T04:26:50.527Z,3.40
2019-03-12T04:28:22.693Z,3.40
2019-03-12T04:29:55.137Z,3.40
2019-03-12T04:31:27.266Z,3.40
2019-03-12T04:32:59.386Z,3.40
2019-03-12T04:34:39.626Z,3.40
2019-03-12T04:36:11.897Z,3.40
2019-03-12T04:37:44.144Z,3.40
2019-03-12T04:39:16.428Z,3.30
2019-03-12T04:40:48.681Z,3.30
2019-03-12T04:42:20.966Z,3.30
2019-03-12T04:43:53.185Z,3.30
2019-03-12T04:45:25.441Z,3.40
2019-03-12T04:46:57.729Z,3.30
2019-03-12T04:48:30.046Z,3.30
2019-03-12T04:50:02.318Z,3.30
2019-03-12T04:51:34.598Z,3.30
2019-03-12T04:53:06.863Z,3.30
2019-03-12T04:54:39.051Z,3.30
2019-03-12T04:56:11.167Z,3.30
2019-03-12T04:57:43.452Z,3.30
2019-03-12T04:59:15.738Z,3.30
2019-03-12T05:00:47.938Z,3.30
2019-03-12T05:02:20.237Z,3.30
2019-03-12T05:03:52.456Z,3.30
2019-03-12T05:05:24.784Z,3.30
2019-03-12T05:06:57.090Z,3.20
2019-03-12T05:08:29.279Z,3.20
2019-03-12T05:10:01.432Z,3.20
2019-03-12T05:11:33.775Z,3.20
2019-03-12T05:13:05.897Z,3.20
2019-03-12T05:14:43.381Z,3.20
2019-03-12T05:16:15.631Z,3.20
2019-03-12T05:17:47.761Z,3.20
2019-03-12T05:19:20.188Z,3.20
2019-03-12T05:20:52.500Z,3.20
2019-03-12T05:22:24.950Z,3.10
2019-03-12T05:23:57.249Z,3.10
2019-03-12T05:25:29.370Z,3.10
2019-03-12T05:27:01.534Z,3.10
2019-03-12T05:28:33.813Z,3.00
2019-03-12T05:30:08.325Z,3.00
2019-03-12T05:31:40.630Z,3.00
2019-03-12T05:33:12.756Z,3.00
2019-03-12T05:34:45.240Z,2.90
2019-03-12T05:36:17.602Z,3.00
2019-03-12T05:37:49.910Z,2.90
2019-03-12T05:39:22.162Z,2.90
2019-03-12T05:40:54.320Z,2.90
2019-03-12T05:42:26.616Z,2.90
2019-03-12T05:43:58.866Z,2.80
2019-03-12T05:45:31.036Z,2.90
2019-03-12T05:47:03.389Z,2.90
2019-03-12T05:48:35.671Z,2.90
2019-03-12T05:50:09.001Z,2.90
2019-03-12T05:51:41.281Z,2.90
2019-03-12T05:53:13.987Z,2.90
2019-03-12T05:54:46.196Z,2.90
2019-03-12T05:56:18.480Z,2.80
2019-03-12T05:57:50.764Z,2.90
2019-03-12T05:59:22.979Z,2.80
2019-03-12T06:00:55.176Z,2.80
2019-03-12T06:02:27.439Z,2.80
2019-03-12T06:03:59.747Z,2.80
2019-03-12T06:05:32.004Z,2.80
2019-03-12T06:07:04.092Z,2.80
2019-03-12T06:08:36.370Z,2.80
2019-03-12T06:10:09.036Z,2.80
2019-03-12T06:11:41.262Z,2.80
2019-03-12T06:13:13.391Z,2.80
2019-03-12T06:14:45.658Z,2.80
2019-03-12T06:16:17.920Z,2.90
2019-03-12T06:17:50.244Z,2.90
2019-03-12T06:19:22.513Z,2.90
2019-03-12T06:20:54.796Z,2.90
2019-03-12T06:22:26.885Z,2.90
2019-03-12T06:23:59.180Z,2.90
2019-03-12T06:25:31.548Z,2.90
2019-03-12T06:27:03.790Z,3.00
2019-03-12T06:28:36.045Z,3.00
2019-03-12T06:30:09.440Z,3.00
2019-03-12T06:32:01.173Z,3.10
2019-03-12T06:33:48.635Z,3.10
2019-03-12T06:35:40.421Z,3.10
2019-03-12T06:37:30.981Z,3.10
2019-03-12T06:39:24.028Z,3.20
2019-03-12T06:41:01.287Z,3.10
2019-03-12T06:42:44.449Z,3.00
2019-03-12T06:44:31.225Z,3.10
2019-03-12T06:46:25.614Z,3.10
2019-03-12T06:48:07.292Z,3.10
2019-03-12T06:49:48.059Z,3.10
2019-03-12T06:51:48.924Z,3.10
2019-03-12T06:53:46.584Z,3.10
2019-03-12T06:55:30.164Z,3.10
2019-03-12T06:57:09.590Z,3.10
2019-03-12T06:59:01.426Z,3.10
2019-03-12T07:00:40.408Z,3.10
2019-03-12T07:02:35.189Z,3.10
2019-03-12T07:04:31.790Z,3.20
2019-03-12T07:06:19.673Z,3.10
2019-03-12T07:08:10.045Z,3.20
2019-03-12T07:09:57.901Z,3.20
2019-03-12T07:11:52.268Z,3.30
2019-03-12T07:13:32.813Z,3.40
2019-03-12T07:15:27.703Z,3.30
2019-03-12T07:17:04.280Z,3.40
2019-03-12T07:19:13.965Z,3.50
2019-03-12T07:21:03.435Z,3.60
2019-03-12T07:23:01.000Z,3.70
2019-03-12T07:24:38.728Z,3.80
2019-03-12T07:26:17.089Z,3.90
2019-03-12T07:28:14.744Z,4.00
2019-03-12T07:30:05.583Z,4.10
2019-03-12T07:32:05.419Z,4.20
2019-03-12T07:33:54.630Z,4.30
2019-03-12T07:35:43.824Z,4.40
2019-03-12T07:37:41.449Z,4.40
2019-03-12T07:39:33.274Z,4.50
2019-03-12T07:41:32.324Z,4.60
2019-03-12T07:43:37.156Z,4.70
2019-03-12T07:45:34.826Z,4.80
2019-03-12T07:47:35.838Z,4.90
2019-03-12T07:49:26.038Z,5.10
2019-03-12T07:51:14.637Z,5.30
2019-03-12T07:53:24.770Z,5.80
2019-03-12T07:55:22.378Z,6.20
2019-03-12T07:57:07.015Z,6.70
2019-03-12T07:58:46.611Z,6.90
2019-03-12T08:00:33.236Z,7.10
2019-03-12T08:02:37.613Z,7.00
2019-03-12T08:04:32.188Z,7.10
2019-03-12T08:06:10.823Z,7.00
2019-03-12T08:08:20.973Z,6.90
2019-03-12T08:10:18.233Z,6.90
2019-03-12T08:12:18.525Z,6.80
2019-03-12T08:14:13.773Z,6.80
2019-03-12T08:16:06.888Z,7.00
2019-03-12T08:18:05.931Z,7.10
2019-03-12T08:20:03.428Z,7.40
2019-03-12T08:22:06.996Z,7.70
2019-03-12T08:23:57.329Z,8.10
2019-03-12T08:25:58.355Z,8.40
2019-03-12T08:27:50.083Z,8.60
2019-03-12T08:29:32.055Z,8.90
2019-03-12T08:31:14.588Z,9.00
2019-03-12T08:32:57.067Z,9.10
2019-03-12T08:34:42.975Z,9.10
2019-03-12T08:36:43.833Z,9.20
2019-03-12T08:38:41.394Z,9.40
2019-03-12T08:40:51.897Z,9.50
2019-03-12T08:42:31.546Z,9.60
2019-03-12T08:44:16.890Z,9.70
2019-03-12T08:46:27.058Z,9.80
2019-03-12T08:48:18.852Z,9.80
2019-03-12T08:50:09.141Z,9.90
2019-03-12T08:52:00.884Z,10.00
2019-03-12T08:53:59.247Z,10.10
2019-03-12T08:56:03.143Z,10.30
2019-03-12T08:57:43.832Z,10.40
2019-03-12T08:59:34.233Z,10.60
2019-03-12T09:01:24.404Z,10.70
2019-03-12T09:03:25.290Z,10.70
2019-03-12T09:05:35.627Z,10.60
2019-03-12T09:07:33.203Z,10.50
2019-03-12T09:09:13.160Z,10.40
2019-03-12T09:11:07.497Z,10.40
2019-03-12T09:12:49.740Z,10.30
2019-03-12T09:14:31.207Z,10.30
2019-03-12T09:16:13.517Z,10.40
2019-03-12T09:18:03.940Z,10.40
2019-03-12T09:19:55.730Z,10.50
2019-03-12T09:22:02.565Z,10.50
2019-03-12T09:24:03.528Z,10.60
2019-03-12T09:25:48.939Z,10.70
2019-03-12T09:27:39.171Z,10.80
2019-03-12T09:29:48.832Z,10.80
2019-03-12T09:31:46.406Z,10.90
2019-03-12T09:33:24.670Z,11.00
2019-03-12T09:35:25.549Z,11.10
2019-03-12T09:37:35.750Z,11.30
2019-03-12T09:39:30.338Z,11.40
2019-03-12T09:41:20.612Z,11.40
2019-03-12T09:43:05.804Z,11.50
2019-03-12T09:44:55.909Z,11.50
2019-03-12T09:46:42.159Z,11.70
2019-03-12T09:48:24.650Z,11.80
2019-03-12T09:50:01.758Z,12.00
2019-03-12T09:51:44.665Z,12.10
2019-03-12T09:53:23.152Z,12.20
2019-03-12T09:55:07.568Z,12.30
2019-03-12T09:56:49.919Z,12.30
2019-03-12T09:58:41.646Z,12.30
2019-03-12T10:00:32.358Z,12.30
2019-03-12T10:02:36.001Z,12.20
2019-03-12T10:04:26.633Z,12.20
2019-03-12T10:06:21.381Z,12.10
2019-03-12T10:08:11.682Z,12.00
2019-03-12T10:10:02.515Z,12.00
2019-03-12T10:12:09.147Z,11.80
2019-03-12T10:14:09.941Z,11.70
2019-03-12T10:16:13.770Z,11.60
2019-03-12T10:18:08.304Z,11.50
2019-03-12T10:20:00.120Z,11.30
2019-03-12T10:21:50.729Z,11.30
2019-03-12T10:23:48.761Z,11.20
2019-03-12T10:25:52.313Z,11.20
2019-03-12T10:27:36.801Z,11.20
2019-03-12T10:29:34.047Z,11.30
2019-03-12T10:31:24.104Z,11.30
2019-03-12T10:33:21.555Z,11.40
2019-03-12T10:35:19.234Z,11.50
2019-03-12T10:37:17.252Z,11.60
2019-03-12T10:39:34.607Z,11.70
2019-03-12T10:41:18.429Z,11.80
2019-03-12T10:43:18.985Z,11.70
2019-03-12T10:45:00.401Z,11.70
2019-03-12T10:46:46.339Z,11.60
2019-03-12T10:48:18.480Z,11.60
2019-03-12T10:49:50.980Z,11.50
2019-03-12T10:51:23.798Z,11.40
2019-03-12T10:52:56.077Z,11.40
2019-03-12T10:54:28.359Z,11.40
2019-03-12T10:56:00.513Z,11.30
2019-03-12T10:57:32.786Z,11.30
2019-03-12T10:59:05.028Z,11.30
2019-03-12T11:00:38.757Z,11.30
2019-03-12T11:02:10.913Z,11.30
2019-03-12T11:03:43.192Z,11.40
2019-03-12T11:05:16.572Z,11.40
2019-03-12T11:06:48.692Z,11.40
2019-03-12T11:08:21.092Z,11.30
2019-03-12T11:09:53.401Z,11.30
2019-03-12T11:11:25.647Z,11.30
2019-03-12T11:12:57.941Z,11.30
2019-03-12T11:14:30.263Z,11.30
2019-03-12T11:16:02.411Z,11.30
2019-03-12T11:17:34.597Z,11.20
2019-03-12T11:19:06.848Z,11.10
2019-03-12T11:20:39.084Z,11.10
2019-03-12T11:22:11.426Z,11.10
2019-03-12T11:23:43.604Z,11.10
2019-03-12T11:25:26.355Z,11.10
2019-03-12T11:26:49.824Z,11.10
2019-03-12T11:28:22.163Z,11.20
2019-03-12T11:29:54.462Z,11.20
2019-03-12T11:31:26.706Z,11.20
2019-03-12T11:32:58.928Z,11.20
2019-03-12T11:34:31.188Z,11.20
2019-03-12T11:36:03.330Z,11.20
2019-03-12T11:37:35.758Z,11.20
2019-03-12T11:39:08.077Z,11.10
2019-03-12T11:40:40.355Z,11.10
2019-03-12T11:42:12.750Z,11.10
2019-03-12T11:43:45.107Z,11.10
2019-03-12T11:45:19.611Z,11.00
2019-03-12T11:46:51.518Z,11.00
2019-03-12T11:48:23.924Z,10.90
2019-03-12T11:49:56.319Z,11.00
2019-03-12T11:51:28.757Z,10.90
2019-03-12T11:53:01.301Z,10.90
2019-03-12T11:54:33.853Z,10.80
2019-03-12T11:56:06.106Z,10.80
2019-03-12T11:57:38.346Z,10.80
2019-03-12T11:59:10.640Z,10.80
2019-03-12T12:00:47.889Z,10.80
2019-03-12T12:02:20.148Z,10.70
2019-03-12T12:03:52.441Z,10.60
2019-03-12T12:05:24.599Z,10.50
2019-03-12T12:06:56.884Z,10.50
2019-03-12T12:08:29.193Z,10.40
2019-03-12T12:10:01.901Z,10.40
2019-03-12T12:11:34.568Z,10.30
2019-03-12T12:13:06.866Z,10.20
2019-03-12T12:14:39.239Z,10.10
2019-03-12T12:16:11.509Z,10.10
2019-03-12T12:17:43.700Z,10.00
2019-03-12T12:19:15.963Z,10.00
2019-03-12T12:20:48.246Z,10.00
2019-03-12T12:22:20.392Z,10.00
2019-03-12T12:23:52.674Z,10.00
2019-03-12T12:25:24.945Z,10.00
2019-03-12T12:26:57.187Z,10.00
2019-03-12T12:28:29.494Z,10.00
2019-03-12T12:30:01.608Z,10.00
2019-03-12T12:31:33.800Z,10.10
2019-03-12T12:33:06.022Z,10.10
2019-03-12T12:34:38.290Z,10.00
2019-03-12T12:36:10.532Z,10.00
2019-03-12T12:37:42.777Z,10.00
2019-03-12T12:39:15.011Z,10.10
2019-03-12T12:40:47.244Z,10.10
2019-03-12T12:42:19.424Z,10.10
2019-03-12T12:43:51.541Z,10.10
2019-03-12T12:45:24.462Z,10.20
2019-03-12T12:46:56.839Z,10.20
2019-03-12T12:48:29.141Z,10.20
2019-03-12T12:50:01.413Z,10.30
2019-03-12T12:51:33.681Z,10.30
2019-03-12T12:53:05.835Z,10.30
2019-03-12T12:54:38.069Z,10.40
2019-03-12T12:56:10.319Z,10.40
2019-03-12T12:57:42.598Z,10.40
2019-03-12T12:59:14.855Z,10.50
2019-03-12T13:00:47.116Z,10.50
2019-03-12T13:02:19.399Z,10.60
2019-03-12T13:03:51.720Z,10.60
2019-03-12T13:05:24.070Z,10.70
2019-03-12T13:06:56.330Z,10.70
2019-03-12T13:08:28.603Z,10.80
2019-03-12T13:10:00.893Z,10.80
2019-03-12T13:11:32.990Z,10.90
2019-03-12T13:13:05.265Z,10.90
2019-03-12T13:14:41.606Z,10.90
2019-03-12T13:16:24.058Z,10.90
2019-03-12T13:17:45.891Z,11.00
2019-03-12T13:19:18.073Z,11.00
2019-03-12T13:20:50.721Z,11.00
2019-03-12T13:22:22.981Z,11.00
2019-03-12T13:23:55.253Z,11.00
2019-03-12T13:25:27.531Z,10.90
2019-03-12T13:26:59.759Z,11.00
2019-03-12T13:28:31.974Z,11.00
2019-03-12T13:30:04.602Z,11.00
2019-03-12T13:31:36.905Z,11.00
2019-03-12T13:33:09.137Z,11.00
2019-03-12T13:34:41.281Z,10.90
2019-03-12T13:36:16.474Z,10.90
2019-03-12T13:37:48.944Z,10.90
2019-03-12T13:39:21.230Z,10.80
2019-03-12T13:40:53.523Z,10.80
2019-03-12T13:42:25.801Z,10.80
2019-03-12T13:43:58.073Z,10.80
2019-03-12T13:45:30.293Z,10.80
2019-03-12T13:47:03.147Z,10.80
2019-03-12T13:48:35.359Z,10.80
2019-03-12T13:50:07.915Z,10.80
2019-03-12T13:51:40.402Z,10.80
2019-03-12T13:53:12.796Z,10.80
2019-03-12T13:54:45.007Z,10.90
2019-03-12T13:56:17.273Z,10.80
2019-03-12T13:57:49.624Z,10.80
2019-03-12T13:59:21.895Z,10.70
2019-03-12T14:00:54.155Z,10.70
2019-03-12T14:02:26.331Z,10.70
2019-03-12T14:04:10.082Z,10.60
2019-03-12T14:05:32.811Z,10.50
2019-03-12T14:07:05.060Z,10.50
2019-03-12T14:08:37.209Z,10.50
2019-03-12T14:10:12.385Z,10.40
2019-03-12T14:11:44.686Z,10.40
2019-03-12T14:13:16.934Z,10.30
2019-03-12T14:14:49.246Z,10.30
2019-03-12T14:16:21.591Z,10.30
2019-03-12T14:17:53.783Z,10.30
2019-03-12T14:19:25.999Z,10.30
2019-03-12T14:21:01.777Z,10.40
2019-03-12T14:22:34.093Z,10.40
2019-03-12T14:24:06.398Z,10.40
2019-03-12T14:25:38.521Z,10.30
2019-03-12T14:27:10.690Z,10.40
2019-03-12T14:28:43.004Z,10.30
2019-03-12T14:30:15.435Z,10.30
2019-03-12T14:31:47.698Z,10.30
2019-03-12T14:33:19.974Z,10.30
2019-03-12T14:34:52.213Z,10.30
2019-03-12T14:36:24.480Z,10.30
2019-03-12T14:37:56.619Z,10.30
2019-03-12T14:39:28.916Z,10.30
2019-03-12T14:41:01.080Z,10.20
2019-03-12T14:42:33.324Z,10.30
2019-03-12T14:44:05.605Z,10.30
2019-03-12T14:45:41.218Z,10.30
2019-03-12T14:47:13.313Z,10.30
2019-03-12T14:48:53.525Z,10.30
2019-03-12T14:50:25.764Z,10.30
2019-03-12T14:52:25.163Z,10.30
2019-03-12T14:53:57.515Z,10.40
2019-03-12T14:55:29.783Z,10.40
2019-03-12T14:57:01.977Z,10.40
2019-03-12T14:58:34.220Z,10.40
2019-03-12T15:00:16.755Z,10.40
2019-03-12T15:01:49.065Z,10.40
2019-03-12T15:03:21.173Z,10.40
2019-03-12T15:04:53.460Z,10.40
2019-03-12T15:06:25.754Z,10.40
2019-03-12T15:07:58.029Z,10.30
2019-03-12T15:09:30.304Z,10.30
2019-03-12T15:11:02.486Z,10.20
2019-03-12T15:12:34.819Z,10.20
2019-03-12T15:14:07.115Z,10.20
2019-03-12T15:15:39.406Z,10.10
2019-03-12T15:17:11.549Z,10.10
2019-03-12T15:18:43.960Z,10.00
2019-03-12T15:20:16.221Z,10.00
2019-03-12T15:21:48.474Z,10.00
2019-03-12T15:23:20.624Z,9.90
2019-03-12T15:24:52.820Z,9.80
2019-03-12T15:26:25.137Z,9.80
2019-03-12T15:27:57.231Z,9.80
2019-03-12T15:29:29.588Z,9.70
2019-03-12T15:31:02.475Z,9.70
2019-03-12T15:32:35.192Z,9.70
2019-03-12T15:34:07.439Z,9.70
2019-03-12T15:35:39.692Z,9.60
2019-03-12T15:37:11.987Z,9.60
2019-03-12T15:38:44.238Z,9.60
2019-03-12T15:40:16.382Z,9.60
2019-03-12T15:41:48.633Z,9.60
2019-03-12T15:43:20.882Z,9.60
2019-03-12T15:44:53.113Z,9.60
2019-03-12T15:46:25.307Z,9.60
2019-03-12T15:47:57.577Z,9.60
2019-03-12T15:49:29.906Z,9.50
2019-03-12T15:51:02.196Z,9.50
2019-03-12T15:52:34.483Z,9.50
2019-03-12T15:54:08.418Z,9.50
2019-03-12T15:55:40.734Z,9.50
2019-03-12T15:57:15.577Z,9.50
2019-03-12T15:58:47.755Z,9.40
2019-03-12T16:00:19.976Z,9.60
2019-03-12T16:01:52.297Z,9.40
2019-03-12T16:03:24.543Z,9.40
2019-03-12T16:04:56.827Z,9.40
2019-03-12T16:06:29.211Z,9.40
2019-03-12T16:08:01.499Z,9.40
2019-03-12T16:09:33.718Z,9.30
2019-03-12T16:11:07.850Z,9.30
2019-03-12T16:12:40.259Z,9.30
2019-03-12T16:14:12.571Z,9.30
2019-03-12T16:15:44.835Z,9.30
2019-03-12T16:17:17.156Z,9.30
2019-03-12T16:18:49.391Z,9.30
2019-03-12T16:20:21.655Z,9.20
2019-03-12T16:21:53.800Z,9.20
2019-03-12T16:23:26.082Z,9.20
2019-03-12T16:24:58.388Z,9.20
2019-03-12T16:26:30.593Z,9.20
2019-03-12T16:28:02.894Z,9.20
2019-03-12T16:29:35.058Z,9.10
2019-03-12T16:31:07.476Z,9.10
2019-03-12T16:32:39.770Z,9.10
2019-03-12T16:34:12.080Z,9.10
2019-03-12T16:35:44.444Z,9.10
2019-03-12T16:37:23.321Z,9.10
2019-03-12T16:38:55.643Z,9.10
2019-03-12T16:40:27.925Z,9.10
2019-03-12T16:42:00.189Z,9.00
2019-03-12T16:43:32.460Z,9.00
2019-03-12T16:45:05.475Z,9.00
2019-03-12T16:46:37.697Z,9.00
2019-03-12T16:48:09.935Z,9.00
2019-03-12T16:49:42.239Z,9.00
2019-03-12T16:51:14.573Z,8.90
2019-03-12T16:52:46.832Z,8.90
2019-03-12T16:54:19.089Z,9.00
2019-03-12T16:55:51.251Z,8.90
2019-03-12T16:57:23.668Z,8.90
2019-03-12T16:58:55.850Z,8.90
2019-03-12T17:00:28.016Z,8.90
2019-03-12T17:02:00.354Z,8.80
2019-03-12T17:03:32.631Z,8.90
2019-03-12T17:05:05.136Z,8.90
2019-03-12T17:06:37.412Z,8.80
2019-03-12T17:08:09.844Z,8.80
2019-03-12T17:09:42.118Z,8.80
2019-03-12T17:11:14.510Z,8.80
2019-03-12T17:12:46.739Z,8.80
2019-03-12T17:14:19.045Z,8.80
2019-03-12T17:15:54.733Z,8.80
2019-03-12T17:17:25.465Z,8.80
2019-03-12T17:18:57.659Z,8.80
2019-03-12T17:20:29.903Z,8.80
2019-03-12T17:22:02.177Z,8.80
2019-03-12T17:23:34.440Z,8.70
2019-03-12T17:25:07.241Z,8.80
2019-03-12T17:26:39.370Z,8.80
2019-03-12T17:28:11.569Z,8.80
2019-03-12T17:29:43.842Z,8.70
2019-03-12T17:31:16.124Z,8.70
2019-03-12T17:32:48.484Z,8.60
2019-03-12T17:34:20.706Z,8.70
2019-03-12T17:35:53.363Z,8.70
2019-03-12T17:37:25.661Z,8.60
2019-03-12T17:38:57.750Z,8.70
2019-03-12T17:40:30.078Z,8.70
2019-03-12T17:42:02.192Z,8.60
2019-03-12T17:43:34.440Z,8.60
2019-03-12T17:45:07.582Z,8.70
2019-03-12T17:46:39.925Z,8.60
2019-03-12T17:48:12.152Z,8.60
2019-03-12T17:49:44.414Z,8.60
2019-03-12T17:51:16.680Z,8.70
2019-03-12T17:52:48.924Z,8.70
2019-03-12T17:54:21.186Z,8.60
2019-03-12T17:55:53.466Z,8.60
2019-03-12T17:57:25.773Z,8.70
2019-03-12T17:58:58.025Z,8.60
2019-03-12T18:00:30.999Z,8.70
2019-03-12T18:02:03.292Z,8.70
2019-03-12T18:03:35.602Z,8.60
2019-03-12T18:05:08.205Z,8.60
2019-03-12T18:06:40.556Z,8.60
2019-03-12T18:08:12.661Z,8.60
2019-03-12T18:09:44.957Z,8.80
2019-03-12T18:11:17.563Z,8.60
2019-03-12T18:12:49.873Z,8.70
2019-03-12T18:14:22.091Z,8.60
2019-03-12T18:15:54.389Z,8.60
2019-03-12T18:17:26.714Z,8.70
2019-03-12T18:18:58.985Z,8.70
2019-03-12T18:20:31.240Z,8.60
2019-03-12T18:22:03.389Z,8.70
2019-03-12T18:23:35.521Z,8.70
2019-03-12T18:25:13.514Z,8.70
2019-03-12T18:26:45.836Z,8.70
2019-03-12T18:28:18.089Z,8.70
2019-03-12T18:29:50.234Z,8.60
2019-03-12T18:31:22.480Z,8.70
2019-03-12T18:32:54.619Z,8.70
2019-03-12T18:34:26.844Z,8.70
2019-03-12T18:35:59.025Z,8.80
2019-03-12T18:37:31.975Z,8.70
2019-03-12T18:39:06.554Z,8.70
2019-03-12T18:40:38.813Z,8.80
2019-03-12T18:42:11.073Z,8.80
2019-03-12T18:43:43.312Z,8.80
2019-03-12T18:45:17.611Z,8.80
2019-03-12T18:46:49.885Z,8.80
2019-03-12T18:48:22.273Z,8.80
2019-03-12T18:49:54.529Z,8.80
2019-03-12T18:51:26.810Z,8.80
2019-03-12T18:52:59.122Z,8.80
2019-03-12T18:54:31.242Z,8.80
2019-03-12T18:56:07.558Z,8.80
2019-03-12T18:57:39.834Z,8.80
2019-03-12T18:59:12.095Z,8.80
2019-03-12T19:00:48.458Z,8.80
2019-03-12T19:02:19.975Z,8.80
2019-03-12T19:03:52.150Z,8.80
2019-03-12T19:05:24.385Z,8.80
2019-03-12T19:06:56.613Z,8.80
2019-03-12T19:08:28.967Z,8.80
2019-03-12T19:10:01.243Z,8.80
2019-03-12T19:11:37.622Z,8.80
2019-03-12T19:13:07.673Z,8.80
2019-03-12T19:14:39.968Z,8.80
2019-03-12T19:16:12.274Z,8.80
2019-03-12T19:17:44.571Z,8.80
2019-03-12T19:19:16.889Z,8.80
2019-03-12T19:20:49.402Z,8.80
2019-03-12T19:22:21.667Z,8.80
2019-03-12T19:23:53.898Z,8.80
2019-03-12T19:25:26.268Z,8.80
2019-03-12T19:26:58.490Z,8.80
2019-03-12T19:28:30.776Z,8.80
2019-03-12T19:30:03.825Z,8.80
2019-03-12T19:31:55.718Z,8.80
2019-03-12T19:33:28.026Z,8.90
2019-03-12T19:35:00.505Z,8.90
2019-03-12T19:36:32.893Z,8.90
2019-03-12T19:38:05.124Z,8.90
2019-03-12T19:39:37.476Z,8.90
2019-03-12T19:41:09.782Z,8.90
2019-03-12T19:42:42.039Z,8.90
2019-03-12T19:44:14.291Z,8.80
2019-03-12T19:45:46.537Z,8.80
2019-03-12T19:47:18.715Z,8.80
2019-03-12T19:48:50.978Z,8.80
2019-03-12T19:50:23.258Z,8.80
2019-03-12T19:51:55.484Z,8.80
2019-03-12T19:53:27.761Z,8.70
2019-03-12T19:54:59.932Z,8.80
2019-03-12T19:56:32.284Z,8.70
2019-03-12T19:58:04.574Z,8.70
2019-03-12T19:59:36.850Z,8.70
2019-03-12T20:01:09.131Z,8.70
2019-03-12T20:02:42.067Z,8.70
2019-03-12T20:04:14.357Z,8.70
2019-03-12T20:05:46.684Z,8.70
2019-03-12T20:07:18.999Z,8.70
2019-03-12T20:08:51.314Z,8.70
2019-03-12T20:11:07.437Z,8.70
2019-03-12T20:13:09.455Z,8.80
2019-03-12T20:15:18.690Z,8.80
2019-03-12T20:17:41.189Z,8.70
2019-03-12T20:20:01.207Z,8.70
2019-03-12T20:22:19.874Z,8.70
2019-03-12T20:24:32.389Z,8.70
2019-03-12T20:26:52.553Z,8.70
2019-03-12T20:28:58.057Z,8.60
2019-03-12T20:31:07.320Z,8.60
2019-03-12T20:33:22.368Z,8.60
2019-03-12T20:35:38.498Z,8.70
2019-03-12T20:37:57.885Z,8.70
2019-03-12T20:40:06.811Z,8.60
2019-03-12T20:42:19.740Z,8.60
2019-03-12T20:44:20.554Z,8.60
2019-03-12T20:46:24.409Z,8.70
2019-03-12T20:48:44.477Z,8.60
2019-03-12T20:50:55.556Z,8.70
2019-03-12T20:53:05.262Z,8.70
2019-03-12T20:55:27.532Z,8.70
2019-03-12T20:58:06.097Z,8.60
2019-03-12T21:00:40.622Z,8.70
2019-03-12T21:03:14.521Z,8.70
2019-03-12T21:05:30.619Z,8.60
2019-03-12T21:07:53.429Z,8.70
2019-03-12T21:10:04.676Z,8.70
2019-03-12T21:12:17.425Z,8.80
2019-03-12T21:14:33.865Z,8.80
2019-03-12T21:16:40.298Z,8.80
2019-03-12T21:18:56.324Z,8.90
2019-03-12T21:21:28.389Z,8.90
2019-03-12T21:23:21.819Z,9.00
2019-03-12T21:25:20.212Z,9.10
2019-03-12T21:27:35.022Z,9.20
2019-03-12T21:29:41.034Z,9.20
2019-03-12T21:31:14.955Z,9.30